Austin, TX (78772)

8:42 AM CDT on August 29, 2014 (GMT -0500)
Travis Heights - Chateaux Sexton | Change Station
CLOSE
Current Station
Personal Weather Station
Location: Austin, TX
Elevation: 568 ft
Nearby Weather Stations

Elev 568 ft 30.24 °N, 97.75 °W | Updated 47 seconds ago

Mostly Cloudy
Mostly Cloudy
78.9 °F
Feels Like 83 °F
N
1.0
Wind Variable Wind from WNW
Gusts 3.0 mph

Today
High -- | Low -- °F
--% Chance of Precip.
Yesterday
High -- | Low -- °F
Precip. -- in
7:06 AM 7:57 PM
Waxing Crescent, 14% visible
Pressure 29.93 in
Visibility 10.0 miles
Clouds Mostly Cloudy 900 ft
Mostly Cloudy 1800 ft
Heat Index 83 °F
Dew Point 75 °F
Humidity 88%
Rainfall 0.00 in
Snow Depth Not available.
UV 1 out of 12
Pollen 7.30 out of 12
Ozone Good
PM2.5 Good
Flu Activity Not available.
SPECI KAUS 291322Z 03007KT 10SM BKN009 BKN018 26/23 A2993 RMK AO2 T02560233

More Conditions Fewer Conditions

Pressure 29.93 in
Visibility 10.0 miles
Clouds Mostly Cloudy 900 ft
Mostly Cloudy 1800 ft
Heat Index 83 °F
Dew Point 75 °F
Humidity 88%
Rainfall 0.00 in
Snow Depth Not available.
UV 1 out of 12
Pollen 7.30 out of 12
Ozone Good
PM2.5 Good
Flu Activity Not available.
SPECI KAUS 291322Z 03007KT 10SM BKN009 BKN018 26/23 A2993 RMK AO2 T02560233

More Conditions Fewer Conditions

Nowcast | as of 5:37 am CDT on August 29, 2014

Through 9 am CDT...isolated to scattered showers and thunderstorms over west central Texas will move southeast at 15 mph toward central Texas and the southern Edwards Plateau. Rain chances will advance south to near an Amistad Reservoir to Mountain Home to Jarrell line by 9 am. Early morning rainfall amounts north of this line should average less than 1/10 inch...but a few totals up to 1/2 inch are possible. Rain chances will continue to expand south and east into the I-35 corridor counties later today.

×

10-Day Weather Forecast

Almanac

Astronomy

Aug. 29, 2014 Rise Set
Actual Time 7:06 AM CDT 7:57 PM CDT
Civil Twilight 6:41 AM CDT 8:21 PM CDT
Nautical Twilight 6:12 AM CDT 8:50 PM CDT
Astronomical Twilight 5:42 AM CDT 9:20 PM CDT
Moon 10:37 AM CDT 10:16 PM CDT
Length of Visible Light 13h 39m
Length of Day
12h 50m
Tomorrow will be 1m 43s shorter.
Waxing Crescent, 14% of the Moon is Illuminated
Today
Waxing Crescent
Sep 2
First Quarter
Sep 8
Full
Sep 15
Last Quarter
Sep 24
New

Today's Extremes

State Highs State Lows

Community

WunderPhotos

Upload Photos

1,748,235 photos uploaded!

Nearby

Air Quality

  Air Quality AQ Index Pollutant
Yesterday Good
OZONE
Yesterday Good
PM2.5
Current Good
PM2.5
Current Good
OZONE
Friday Good
OZONE
Friday Good
PM10
Saturday Good
OZONE
Saturday Good
PM10
Sunday Good
OZONE
Sunday Good
PM10

Snow Depth

Station Depth Elevation
No new snow has been reported.

Earthquake Activity

City Distance Mag. Time & Date
No recent earthquake activity has been reported nearby.
Minimum magnitude displayed is 2.5.

Coastal Water Temperatures

Place Temperature
No Stations Reporting

Nearby Weather Stations